首页
METAR-TAF:

METAR-TAF

机场 :

克里斯蒂亚诺·罗纳尔多机场

丰沙尔, 馬德拉群岛, 葡萄牙

纬度: 32-41-52N, 经度: 016-46-28W, 海拔: 59米

当前天气观测

该预报发布于37分钟前的15:00 UTC
风速14节,风向北转东北
温度 26°C
湿度 58%
气压 1018 hPa
能见度10公里或以上
散云层高于1500英尺

METAR: LPMA 111500Z 02014KT 9999 SCT015 26/17 Q1018

时间: 16:37 (15:37 UTC)

预报

该预报发布于4小时和37分钟前的11:00 UTC
预报有效从11日的 12点(UTC)到 12日的 12点(UTC)
风速13节,风向北转东北
能见度10公里或以上
散云层高于1600英尺
短暂存在
从 11日的 12点(UTC)到 12日的 12点(UTC)
少量云层高于1500英尺
多云层高于3000英尺
几率 30% :
短暂存在
从 11日的 12点(UTC)到 11日的 16点(UTC)
风速10节,风向南转西南

TAF: LPMA 111100Z 1112/1212 02013KT 9999 SCT016 TEMPO 1112/1212 FEW015 BKN030 PROB30 TEMPO 1112/1116 20010KT

超过4000个机场的气象观测和天气预报(METAR&TAF报告)。

可查询的气象台以黄色和红色小点在地图上表示。

将鼠标移到小点上方,可查看气象台名称。

然后点击查看天气观测和预报。

如需切换地图:点击带黑十字的绿色按钮放大地图;点击带横线的绿色按钮缩小地图;或者点击绿色箭头查看邻近地区的地图。


METAR-TAF: